Time;durP1;ratioP1;P1;durP2;ratioP2;P2;SDS_P1;SDS_P2;PMS_P1;PMS_P2;Temp;Humidity;BMP_temperature;BMP_pressure;BME280_temperature;BME280_humidity;BME280_pressure;Samples;Min_cycle;Max_cycle;Signal;HPM_P1;HPM_P2
2023/08/29 00:00:15;;;;;;;0.60;0.52;;;28.60;53.20;;;;;;6370825;22;20170;-90
2023/08/29 00:02:44;;;;;;;0.77;0.70;;;28.60;53.30;;;;;;6370428;22;20166;-89
2023/08/29 00:05:13;;;;;;;0.90;0.60;;;28.60;53.50;;;;;;6370247;22;20170;-90
2023/08/29 00:07:43;;;;;;;1.08;0.50;;;28.60;53.50;;;;;;6370587;22;20164;-88
2023/08/29 00:10:12;;;;;;;0.50;0.50;;;28.60;53.60;;;;;;6369940;22;20155;-86
2023/08/29 00:12:42;;;;;;;2.15;0.73;;;28.50;53.70;;;;;;6370350;22;20611;-87
2023/08/29 00:15:11;;;;;;;0.40;0.40;;;28.50;53.60;;;;;;6369354;22;20270;-87
2023/08/29 00:17:39;;;;;;;0.50;0.50;;;28.50;53.60;;;;;;6369798;22;20164;-88
2023/08/29 00:20:10;;;;;;;0.70;0.47;;;28.50;53.90;;;;;;6368773;22;20171;-87
2023/08/29 00:22:38;;;;;;;0.40;0.40;;;28.40;53.70;;;;;;6370680;22;20589;-89
2023/08/29 00:25:08;;;;;;;2.50;1.17;;;28.50;53.90;;;;;;6370069;22;20168;-89
2023/08/29 00:27:37;;;;;;;0.45;0.32;;;28.40;53.80;;;;;;6370907;22;20234;-89
2023/08/29 00:30:08;;;;;;;0.93;0.85;;;28.40;54.10;;;;;;6367894;22;20727;-89
2023/08/29 00:32:37;;;;;;;0.75;0.75;;;28.40;54.10;;;;;;6370420;22;20865;-88
2023/08/29 00:35:06;;;;;;;0.52;0.50;;;28.40;54.30;;;;;;6369173;22;20197;-88
2023/08/29 00:37:34;;;;;;;0.77;0.40;;;28.40;54.20;;;;;;6370406;22;20517;-89
2023/08/29 00:40:04;;;;;;;0.63;0.50;;;28.30;54.40;;;;;;6368619;22;20242;-87
2023/08/29 00:42:33;;;;;;;0.65;0.50;;;28.40;54.30;;;;;;6369455;22;20612;-90
2023/08/29 00:45:02;;;;;;;3.58;1.20;;;28.40;54.20;;;;;;6368249;22;20551;-89
2023/08/29 00:47:32;;;;;;;0.28;0.28;;;28.40;54.30;;;;;;6369890;22;20170;-89
2023/08/29 00:50:00;;;;;;;1.45;0.85;;;28.30;54.30;;;;;;6368084;22;20214;-90
2023/08/29 00:52:29;;;;;;;0.40;0.40;;;28.30;54.30;;;;;;6343575;22;20512;-90
2023/08/29 00:55:01;;;;;;;0.20;0.20;;;28.30;54.20;;;;;;6370240;22;20194;-89
2023/08/29 00:57:31;;;;;;;0.63;0.60;;;28.30;54.20;;;;;;6369203;22;20163;-89
2023/08/29 00:59:59;;;;;;;0.30;0.30;;;28.30;54.30;;;;;;6369845;22;20168;-90
2023/08/29 01:02:28;;;;;;;0.35;0.32;;;28.30;54.20;;;;;;6369659;22;20544;-89
2023/08/29 01:04:59;;;;;;;2.85;0.57;;;28.30;54.20;;;;;;6369487;22;20179;-90
2023/08/29 01:07:27;;;;;;;2.35;0.50;;;28.20;54.10;;;;;;6369574;22;20171;-91
2023/08/29 01:09:56;;;;;;;0.98;0.50;;;28.20;54.20;;;;;;6341754;22;20175;-91
2023/08/29 01:12:38;;;;;;;0.50;0.50;;;28.20;54.30;;;;;;6370762;22;20217;-89
2023/08/29 01:15:12;;;;;;;1.55;0.60;;;28.20;54.40;;;;;;6317179;22;20171;-89
2023/08/29 01:17:46;;;;;;;0.55;0.55;;;28.20;54.40;;;;;;6370387;22;20159;-90
2023/08/29 01:20:18;;;;;;;0.35;0.35;;;28.10;54.30;;;;;;6369667;22;20639;-90
2023/08/29 01:22:59;;;;;;;0.57;0.50;;;28.10;54.50;;;;;;6375438;22;20468;-89
2023/08/29 01:25:49;;;;;;;0.57;0.57;;;28.00;54.60;;;;;;6370820;22;20237;-90
2023/08/29 01:28:20;;;;;;;0.55;0.55;;;28.00;54.80;;;;;;6369487;22;20170;-90
2023/08/29 01:30:50;;;;;;;0.73;0.60;;;27.90;54.90;;;;;;6370694;22;20243;-90
2023/08/29 01:33:20;;;;;;;0.82;0.50;;;27.90;54.90;;;;;;6370176;22;20194;-90
2023/08/29 01:35:48;;;;;;;1.10;0.82;;;27.80;55.00;;;;;;6370364;22;20188;-89
2023/08/29 01:38:18;;;;;;;0.50;0.50;;;27.80;55.10;;;;;;6370243;22;20170;-89
2023/08/29 01:40:47;;;;;;;0.90;0.90;;;27.70;55.20;;;;;;6370399;22;20557;-90
2023/08/29 01:43:15;;;;;;;2.15;0.88;;;27.70;55.70;;;;;;6369994;22;20187;-90
2023/08/29 01:45:45;;;;;;;0.55;0.30;;;27.60;55.60;;;;;;6370091;22;20164;-88
2023/08/29 01:48:14;;;;;;;1.23;1.05;;;27.60;55.90;;;;;;6370053;22;20188;-88
2023/08/29 01:50:43;;;;;;;0.40;0.40;;;27.50;56.10;;;;;;6344322;22;20164;-89
2023/08/29 01:53:11;;;;;;;0.80;0.80;;;27.40;56.00;;;;;;6370741;22;20247;-90
2023/08/29 01:55:41;;;;;;;4.45;0.88;;;27.30;55.90;;;;;;6369878;22;20191;-91
2023/08/29 01:58:10;;;;;;;1.33;0.82;;;27.30;56.10;;;;;;6369930;22;20673;-89
2023/08/29 02:00:39;;;;;;;1.40;0.70;;;27.30;56.10;;;;;;6369448;22;20170;-87
2023/08/29 02:03:10;;;;;;;0.50;0.50;;;27.20;55.90;;;;;;6368691;22;20232;-92
2023/08/29 02:05:41;;;;;;;0.50;0.50;;;27.10;56.00;;;;;;6369402;22;20151;-89
2023/08/29 02:08:09;;;;;;;0.45;0.45;;;27.10;56.30;;;;;;6369654;22;20175;-88
2023/08/29 02:10:38;;;;;;;0.50;0.40;;;27.10;56.30;;;;;;6368587;22;20656;-89
2023/08/29 02:13:06;;;;;;;0.38;0.32;;;27.00;56.30;;;;;;6342281;22;20163;-89
2023/08/29 02:15:35;;;;;;;0.30;0.30;;;27.00;56.30;;;;;;6370101;22;20164;-90
2023/08/29 02:18:05;;;;;;;0.52;0.52;;;26.90;56.70;;;;;;6369166;22;20199;-91
2023/08/29 02:20:37;;;;;;;0.35;0.35;;;26.90;56.80;;;;;;6341254;22;20535;-91
2023/08/29 02:23:05;;;;;;;1.23;0.80;;;26.80;57.00;;;;;;6369122;22;20215;-90
2023/08/29 02:25:34;;;;;;;1.50;0.77;;;26.80;57.50;;;;;;6342724;22;20209;-90
2023/08/29 02:28:05;;;;;;;0.88;0.63;;;26.70;58.30;;;;;;6370208;22;20170;-89
2023/08/29 02:30:37;;;;;;;0.82;0.80;;;26.70;58.00;;;;;;6370009;22;20167;-89
2023/08/29 02:33:05;;;;;;;0.75;0.65;;;26.60;57.80;;;;;;6370072;22;20182;-89
2023/08/29 02:35:35;;;;;;;0.68;0.60;;;26.60;57.80;;;;;;6370464;22;20525;-89
2023/08/29 02:38:05;;;;;;;1.45;1.20;;;26.60;57.80;;;;;;6368514;22;20191;-88
2023/08/29 02:40:35;;;;;;;0.63;0.63;;;26.50;57.70;;;;;;6369727;22;20507;-90
2023/08/29 02:43:03;;;;;;;0.45;0.43;;;26.50;57.70;;;;;;6369377;22;20160;-90
2023/08/29 02:45:32;;;;;;;0.40;0.40;;;26.50;57.80;;;;;;6369885;22;20160;-90
2023/08/29 02:48:00;;;;;;;0.40;0.40;;;26.40;57.70;;;;;;6369216;22;20171;-90
2023/08/29 02:50:29;;;;;;;1.13;0.70;;;26.40;58.40;;;;;;6370039;22;20175;-90
2023/08/29 02:53:02;;;;;;;0.80;0.80;;;26.40;57.90;;;;;;6368176;22;20224;-88
2023/08/29 02:55:31;;;;;;;1.23;0.95;;;26.40;58.40;;;;;;6369463;22;20196;-89
2023/08/29 02:57:59;;;;;;;0.47;0.47;;;26.30;58.50;;;;;;6368438;22;20200;-88
2023/08/29 03:00:28;;;;;;;1.85;0.95;;;26.20;58.80;;;;;;6341666;22;20160;-90
2023/08/29 03:02:57;;;;;;;0.70;0.63;;;26.20;59.30;;;;;;6369545;22;20164;-90
2023/08/29 03:05:26;;;;;;;0.50;0.50;;;26.20;59.50;;;;;;6368393;22;20171;-90
2023/08/29 03:07:57;;;;;;;1.42;0.70;;;26.20;59.80;;;;;;6368909;22;20185;-89
2023/08/29 03:10:27;;;;;;;0.75;0.75;;;26.20;59.80;;;;;;6370453;22;20160;-89
2023/08/29 03:12:56;;;;;;;1.20;0.70;;;26.10;59.70;;;;;;6369707;22;20365;-90
2023/08/29 03:15:25;;;;;;;7.85;0.57;;;26.10;59.70;;;;;;6342707;22;20243;-88
2023/08/29 03:17:54;;;;;;;0.73;0.73;;;26.10;59.60;;;;;;6369687;22;20192;-89
2023/08/29 03:20:22;;;;;;;0.65;0.65;;;26.10;59.60;;;;;;6369382;22;20168;-88
2023/08/29 03:22:51;;;;;;;0.38;0.38;;;26.10;59.50;;;;;;6371408;22;20168;-89
2023/08/29 03:25:20;;;;;;;1.10;0.65;;;26.10;59.50;;;;;;6371743;22;20259;-89
2023/08/29 03:27:51;;;;;;;0.88;0.82;;;26.10;60.20;;;;;;6371415;22;20506;-90
2023/08/29 03:30:20;;;;;;;2.45;1.50;;;26.10;59.60;;;;;;6343441;22;20156;-89
2023/08/29 03:32:50;;;;;;;0.60;0.55;;;26.10;59.70;;;;;;6370526;22;20190;-88
2023/08/29 03:35:19;;;;;;;0.68;0.65;;;26.10;59.50;;;;;;6371334;22;20156;-89
2023/08/29 03:37:48;;;;;;;0.30;0.30;;;26.10;59.50;;;;;;6371033;22;20227;-89
2023/08/29 03:40:17;;;;;;;0.65;0.65;;;26.00;59.40;;;;;;6344246;22;20168;-90
2023/08/29 03:42:46;;;;;;;0.40;0.40;;;26.00;59.70;;;;;;6370986;22;20164;-87
2023/08/29 03:45:16;;;;;;;3.28;1.52;;;26.00;59.70;;;;;;6371200;22;20493;-91
2023/08/29 03:47:44;;;;;;;0.75;0.70;;;26.00;60.00;;;;;;6370222;22;20162;-87
2023/08/29 03:50:13;;;;;;;1.80;1.25;;;26.00;60.30;;;;;;6344737;22;20178;-89
2023/08/29 03:52:42;;;;;;;0.85;0.70;;;26.00;61.20;;;;;;6371206;22;20163;-88
2023/08/29 03:55:11;;;;;;;0.75;0.63;;;25.90;60.40;;;;;;6370294;22;20287;-90
2023/08/29 03:57:39;;;;;;;0.68;0.68;;;25.90;60.40;;;;;;6370310;22;20195;-90
2023/08/29 04:00:10;;;;;;;3.55;0.60;;;25.90;60.40;;;;;;6342437;22;20170;-90
2023/08/29 04:02:41;;;;;;;2.38;1.10;;;25.90;60.50;;;;;;6372036;22;20152;-90
2023/08/29 04:05:14;;;;;;;0.88;0.60;;;25.90;60.50;;;;;;6371351;22;20206;-89
2023/08/29 04:07:44;;;;;;;1.05;0.88;;;25.90;60.50;;;;;;6342093;22;20168;-88
2023/08/29 04:10:13;;;;;;;0.60;0.60;;;25.90;60.40;;;;;;6368719;22;20872;-89
2023/08/29 04:12:42;;;;;;;0.40;0.40;;;25.90;60.70;;;;;;6369450;22;20202;-88
2023/08/29 04:15:12;;;;;;;1.10;0.70;;;25.90;61.00;;;;;;6371113;22;20170;-88
2023/08/29 04:17:42;;;;;;;0.22;0.22;;;25.90;60.90;;;;;;6371639;22;20659;-88
2023/08/29 04:20:13;;;;;;;0.90;0.80;;;26.00;61.10;;;;;;6369530;22;20179;-88
2023/08/29 04:22:42;;;;;;;0.40;0.40;;;26.00;61.20;;;;;;6343325;22;20156;-89
2023/08/29 04:25:10;;;;;;;0.55;0.30;;;26.10;61.10;;;;;;6370532;22;20239;-88
2023/08/29 04:27:39;;;;;;;1.35;0.50;;;26.10;61.00;;;;;;6372683;22;20164;-88
2023/08/29 04:30:08;;;;;;;0.73;0.57;;;26.10;61.10;;;;;;6371181;22;20211;-89
2023/08/29 04:32:37;;;;;;;0.38;0.38;;;26.10;61.00;;;;;;6370440;22;20243;-89
2023/08/29 04:35:16;;;;;;;0.88;0.63;;;26.20;60.80;;;;;;6368851;22;20317;-88
2023/08/29 04:37:47;;;;;;;0.85;0.73;;;26.30;61.10;;;;;;6372164;22;20180;-88
2023/08/29 04:40:17;;;;;;;0.90;0.82;;;26.30;61.80;;;;;;6367102;22;20160;-88
2023/08/29 04:42:46;;;;;;;3.00;1.02;;;26.30;61.80;;;;;;6369787;22;20152;-88
2023/08/29 04:45:15;;;;;;;0.80;0.80;;;26.40;61.90;;;;;;6342587;22;20247;-89
2023/08/29 04:47:43;;;;;;;0.63;0.63;;;26.40;61.70;;;;;;6369039;22;20164;-88
2023/08/29 04:50:15;;;;;;;0.30;0.30;;;26.40;61.50;;;;;;6369681;22;20170;-88
2023/08/29 04:52:43;;;;;;;4.15;0.73;;;26.40;61.60;;;;;;6367249;22;20492;-87
2023/08/29 04:55:16;;;;;;;2.15;1.73;;;26.50;61.40;;;;;;6368120;22;20286;-88
2023/08/29 04:57:44;;;;;;;0.60;0.50;;;26.50;61.30;;;;;;6367547;22;20205;-86
2023/08/29 05:00:14;;;;;;;1.23;0.90;;;26.60;61.40;;;;;;6367970;22;20167;-85
2023/08/29 05:02:43;;;;;;;1.52;0.82;;;26.60;61.50;;;;;;6367800;22;20580;-87
2023/08/29 05:05:13;;;;;;;0.50;0.50;;;26.60;61.40;;;;;;6368071;22;20184;-87
2023/08/29 05:07:42;;;;;;;0.60;0.60;;;26.70;61.40;;;;;;6369146;22;20167;-87
2023/08/29 05:10:11;;;;;;;0.40;0.40;;;26.70;61.30;;;;;;6367609;22;20160;-87
2023/08/29 05:12:41;;;;;;;2.15;1.05;;;26.80;61.40;;;;;;6369003;22;20164;-86
2023/08/29 05:15:10;;;;;;;0.40;0.40;;;26.80;61.30;;;;;;6370365;22;20163;-90
2023/08/29 05:17:39;;;;;;;2.40;0.70;;;26.90;61.20;;;;;;6369894;22;20474;-89
2023/08/29 05:20:09;;;;;;;1.08;0.80;;;26.90;61.30;;;;;;6366048;22;20168;-88
2023/08/29 05:22:40;;;;;;;1.30;1.20;;;27.00;61.40;;;;;;6367701;22;20159;-89
2023/08/29 05:25:08;;;;;;;0.68;0.57;;;27.10;61.50;;;;;;6369655;22;20164;-87
2023/08/29 05:27:37;;;;;;;1.05;0.95;;;27.10;61.40;;;;;;6370091;22;20624;-87
2023/08/29 05:30:07;;;;;;;0.57;0.50;;;27.10;61.20;;;;;;6366585;22;20483;-89
2023/08/29 05:32:38;;;;;;;1.95;1.10;;;27.20;61.10;;;;;;6366620;22;20179;-86
2023/08/29 05:35:07;;;;;;;2.03;1.17;;;27.30;61.30;;;;;;6367910;22;20156;-88
2023/08/29 05:37:36;;;;;;;1.02;0.95;;;27.30;61.10;;;;;;6368809;22;20167;-86
2023/08/29 05:40:08;;;;;;;4.15;1.73;;;27.40;61.10;;;;;;6367602;22;20160;-87
2023/08/29 05:42:37;;;;;;;0.70;0.50;;;27.50;60.80;;;;;;6368245;22;20229;-88
2023/08/29 05:45:06;;;;;;;0.38;0.38;;;27.50;60.60;;;;;;6368289;22;20250;-87
2023/08/29 05:47:39;;;;;;;0.75;0.75;;;27.60;60.50;;;;;;6369393;22;20160;-88
2023/08/29 05:50:08;;;;;;;4.65;1.33;;;27.70;60.30;;;;;;6368658;22;20462;-89
2023/08/29 05:52:37;;;;;;;1.75;0.60;;;27.70;60.10;;;;;;6367978;22;20160;-89
2023/08/29 05:55:08;;;;;;;2.20;1.17;;;27.80;60.10;;;;;;6368088;22;20196;-88
2023/08/29 05:57:36;;;;;;;0.43;0.43;;;27.80;59.90;;;;;;6369309;22;20160;-87
2023/08/29 06:00:07;;;;;;;0.55;0.55;;;27.80;59.80;;;;;;6367989;22;20195;-87
2023/08/29 06:02:35;;;;;;;0.55;0.55;;;27.90;59.70;;;;;;6368286;22;20167;-88
2023/08/29 06:05:10;;;;;;;0.80;0.47;;;28.00;59.60;;;;;;6367781;22;20616;-88
2023/08/29 06:07:39;;;;;;;0.57;0.57;;;28.10;59.50;;;;;;6368612;22;20189;-88
2023/08/29 06:10:10;;;;;;;1.25;0.80;;;28.20;59.50;;;;;;6368489;22;20179;-89
2023/08/29 06:12:39;;;;;;;1.55;1.17;;;28.20;59.30;;;;;;6369609;22;20186;-87
2023/08/29 06:15:08;;;;;;;0.55;0.55;;;28.20;59.20;;;;;;6366990;22;20612;-85
2023/08/29 06:17:36;;;;;;;0.60;0.52;;;28.30;59.10;;;;;;6367615;22;20182;-86
2023/08/29 06:20:06;;;;;;;1.00;0.90;;;28.40;59.00;;;;;;6368944;22;20215;-86
2023/08/29 06:22:34;;;;;;;4.53;1.88;;;28.40;58.90;;;;;;6368202;22;20510;-84
2023/08/29 06:25:04;;;;;;;0.52;0.47;;;28.60;58.90;;;;;;6341389;22;20706;-86
2023/08/29 06:27:34;;;;;;;1.95;0.82;;;28.60;58.80;;;;;;6365000;22;20706;-84
2023/08/29 06:30:02;;;;;;;0.65;0.50;;;28.70;59.30;;;;;;6366994;22;20164;-85
2023/08/29 06:32:31;;;;;;;2.03;1.00;;;28.70;58.40;;;;;;6368346;22;20163;-86
2023/08/29 06:34:59;;;;;;;1.70;0.80;;;28.80;58.10;;;;;;6364196;22;20164;-85
2023/08/29 06:37:28;;;;;;;0.95;0.82;;;28.90;58.10;;;;;;6366806;22;20497;-86
2023/08/29 06:39:57;;;;;;;0.52;0.50;;;29.00;58.10;;;;;;6366168;22;20266;-86
2023/08/29 06:42:25;;;;;;;0.75;0.75;;;29.10;58.10;;;;;;6366978;22;20168;-86
2023/08/29 06:44:57;;;;;;;0.30;0.30;;;29.10;57.90;;;;;;6365929;22;20163;-86
2023/08/29 06:47:26;;;;;;;0.45;0.45;;;29.20;57.50;;;;;;6364703;22;20156;-86
2023/08/29 06:49:55;;;;;;;0.80;0.60;;;29.30;57.40;;;;;;6367481;22;20171;-86
2023/08/29 06:52:23;;;;;;;0.80;0.68;;;29.30;57.20;;;;;;6368343;22;20563;-89
2023/08/29 06:54:51;;;;;;;0.52;0.52;;;29.40;56.80;;;;;;6366115;22;20198;-87
2023/08/29 06:57:20;;;;;;;0.60;0.60;;;29.50;56.80;;;;;;6366432;22;20591;-89
2023/08/29 06:59:48;;;;;;;3.65;1.08;;;29.50;56.30;;;;;;6366802;22;20196;-88
2023/08/29 07:02:18;;;;;;;0.60;0.60;;;29.60;56.30;;;;;;6368091;22;20168;-88
2023/08/29 07:04:47;;;;;;;0.50;0.50;;;29.70;56.30;;;;;;6365588;22;20167;-90
2023/08/29 07:07:15;;;;;;;1.02;0.88;;;29.80;56.30;;;;;;6366398;22;20166;-86
2023/08/29 07:09:44;;;;;;;1.50;1.20;;;29.90;56.30;;;;;;6367901;22;20168;-89
2023/08/29 07:12:22;;;;;;;0.90;0.52;;;29.90;56.10;;;;;;6366881;22;20164;-89
2023/08/29 07:14:50;;;;;;;0.55;0.38;;;30.00;56.20;;;;;;6368439;22;20189;-89
2023/08/29 07:17:23;;;;;;;1.17;0.60;;;30.10;56.10;;;;;;6365427;22;20235;-91
2023/08/29 07:19:51;;;;;;;1.05;0.93;;;30.20;56.10;;;;;;6368414;22;20186;-88
2023/08/29 07:22:20;;;;;;;1.10;0.98;;;30.30;55.90;;;;;;6369622;22;20203;-90
2023/08/29 07:24:51;;;;;;;1.58;1.38;;;30.30;55.70;;;;;;6371348;22;20160;-87
2023/08/29 07:27:20;;;;;;;0.85;0.80;;;30.40;55.80;;;;;;6368763;22;20170;-89
2023/08/29 07:29:49;;;;;;;0.63;0.63;;;30.50;55.70;;;;;;6370512;22;20238;-88
2023/08/29 07:32:17;;;;;;;4.13;1.25;;;30.50;55.30;;;;;;6388809;22;20164;-88
2023/08/29 07:34:47;;;;;;;1.13;0.82;;;30.60;55.00;;;;;;6392027;22;20190;-88
2023/08/29 07:37:16;;;;;;;0.60;0.47;;;30.60;55.00;;;;;;6390895;22;20163;-88
2023/08/29 07:39:44;;;;;;;2.95;1.25;;;30.70;55.00;;;;;;6391321;22;20221;-87
2023/08/29 07:42:12;;;;;;;1.17;0.77;;;30.80;54.70;;;;;;6391671;22;20198;-90
2023/08/29 07:44:41;;;;;;;0.75;0.50;;;30.80;54.50;;;;;;6392848;22;20171;-89
2023/08/29 07:47:09;;;;;;;1.95;0.52;;;30.90;54.40;;;;;;6392984;22;20267;-88
2023/08/29 07:49:43;;;;;;;0.35;0.35;;;30.90;54.40;;;;;;6395039;22;20186;-89
2023/08/29 07:52:12;;;;;;;1.40;0.50;;;31.10;54.50;;;;;;6395203;22;20207;-87
2023/08/29 07:54:41;;;;;;;1.08;0.55;;;31.10;54.30;;;;;;6393512;22;20194;-89
2023/08/29 07:57:10;;;;;;;0.98;0.73;;;31.20;54.30;;;;;;6391935;22;20164;-88
2023/08/29 07:59:38;;;;;;;1.20;0.68;;;31.20;54.20;;;;;;6359180;22;20227;-87
2023/08/29 08:02:07;;;;;;;1.17;0.90;;;31.30;54.10;;;;;;6389901;22;20175;-88
2023/08/29 08:04:36;;;;;;;0.40;0.30;;;31.40;54.20;;;;;;6375983;22;20171;-89
2023/08/29 08:07:05;;;;;;;0.90;0.75;;;31.50;54.20;;;;;;6375838;22;20219;-88
2023/08/29 08:09:35;;;;;;;1.73;0.65;;;31.50;54.00;;;;;;6374912;22;20544;-89
2023/08/29 08:12:04;;;;;;;5.05;0.75;;;31.60;53.70;;;;;;6373649;22;20669;-89
2023/08/29 08:14:33;;;;;;;0.93;0.93;;;31.70;53.90;;;;;;6349258;22;20174;-89
2023/08/29 08:17:01;;;;;;;0.70;0.70;;;31.80;53.90;;;;;;6376211;22;20164;-89
2023/08/29 08:19:30;;;;;;;1.55;0.85;;;31.80;53.40;;;;;;6371958;22;20201;-88
2023/08/29 08:21:59;;;;;;;0.95;0.85;;;31.90;53.50;;;;;;6367684;22;20167;-83
2023/08/29 08:24:28;;;;;;;1.30;0.88;;;31.90;53.10;;;;;;6369785;22;20160;-85
2023/08/29 08:26:59;;;;;;;0.85;0.82;;;32.00;53.20;;;;;;6370068;22;20164;-87
2023/08/29 08:29:27;;;;;;;2.78;0.60;;;32.10;53.20;;;;;;6367882;22;20197;-85
2023/08/29 08:31:56;;;;;;;2.67;1.63;;;32.20;52.90;;;;;;6369505;22;20168;-87
2023/08/29 08:34:24;;;;;;;1.63;0.88;;;32.30;53.00;;;;;;6366687;22;20655;-86
2023/08/29 08:36:53;;;;;;;1.17;0.82;;;32.30;52.80;;;;;;6369170;22;20684;-90
2023/08/29 08:39:22;;;;;;;0.47;0.47;;;32.40;52.20;;;;;;6366627;22;20174;-87
2023/08/29 08:41:53;;;;;;;0.75;0.63;;;32.40;52.10;;;;;;6368790;22;20250;-87
2023/08/29 08:44:23;;;;;;;1.08;0.85;;;32.50;52.00;;;;;;6368418;22;20538;-88
2023/08/29 08:46:53;;;;;;;0.85;0.50;;;32.60;51.90;;;;;;6370679;22;20190;-88
2023/08/29 08:49:22;;;;;;;0.60;0.60;;;32.60;51.80;;;;;;6367504;22;20167;-88
2023/08/29 08:51:50;;;;;;;1.13;1.05;;;32.70;51.60;;;;;;6368717;22;20170;-87
2023/08/29 08:54:19;;;;;;;0.65;0.65;;;32.80;51.30;;;;;;6368614;22;20179;-88
2023/08/29 08:56:51;;;;;;;0.75;0.65;;;32.90;51.10;;;;;;6340879;22;20624;-88
2023/08/29 08:59:20;;;;;;;2.15;1.60;;;32.90;50.80;;;;;;6370000;22;20163;-87
2023/08/29 09:01:50;;;;;;;0.88;0.80;;;32.90;50.70;;;;;;6366755;22;20627;-88
2023/08/29 09:04:19;;;;;;;1.42;0.90;;;33.00;50.80;;;;;;6369067;22;20596;-88
2023/08/29 09:06:47;;;;;;;0.85;0.40;;;33.10;50.60;;;;;;6370509;22;20526;-89
2023/08/29 09:09:17;;;;;;;0.40;0.40;;;33.20;50.80;;;;;;6368925;22;20168;-88
2023/08/29 09:11:52;;;;;;;0.95;0.70;;;33.20;50.40;;;;;;6370719;22;20168;-89
2023/08/29 09:14:21;;;;;;;1.52;1.17;;;33.30;50.40;;;;;;6368277;22;20158;-89
2023/08/29 09:16:55;;;;;;;0.90;0.68;;;33.40;50.50;;;;;;6367949;22;20250;-89
2023/08/29 09:19:24;;;;;;;0.50;0.50;;;33.40;50.90;;;;;;6341266;22;20231;-88
2023/08/29 09:21:53;;;;;;;1.00;0.88;;;33.50;50.10;;;;;;6370831;22;20187;-88
2023/08/29 09:24:32;;;;;;;1.38;0.82;;;33.60;50.00;;;;;;6370304;22;20497;-88
2023/08/29 09:27:09;;;;;;;1.90;1.23;;;33.60;49.60;;;;;;6369394;22;20164;-90
2023/08/29 09:29:38;;;;;;;0.95;0.75;;;33.60;49.60;;;;;;6370131;22;20171;-90
2023/08/29 09:32:14;;;;;;;1.70;1.20;;;33.80;49.40;;;;;;6370019;22;20191;-92
2023/08/29 09:34:43;;;;;;;2.80;1.40;;;33.80;49.50;;;;;;6370934;22;20205;-90
2023/08/29 09:37:12;;;;;;;0.65;0.57;;;33.90;49.30;;;;;;6369908;22;20168;-90
2023/08/29 09:39:41;;;;;;;4.15;1.55;;;33.90;49.20;;;;;;6370245;22;20164;-90
2023/08/29 09:42:11;;;;;;;0.65;0.63;;;34.00;49.30;;;;;;6370411;22;20170;-92
2023/08/29 09:44:41;;;;;;;0.93;0.80;;;34.00;48.70;;;;;;6368434;22;20193;-89
2023/08/29 09:47:11;;;;;;;1.33;0.95;;;34.10;48.80;;;;;;6355836;22;20164;-90
2023/08/29 09:49:45;;;;;;;1.05;0.90;;;34.10;48.80;;;;;;6369651;22;20201;-91
2023/08/29 09:52:15;;;;;;;3.90;1.73;;;34.20;48.70;;;;;;6370647;22;20155;-91
2023/08/29 09:54:46;;;;;;;0.45;0.45;;;34.20;48.80;;;;;;6369343;22;20207;-91
2023/08/29 09:57:16;;;;;;;0.93;0.70;;;34.20;48.60;;;;;;6340311;22;20164;-92
2023/08/29 09:59:45;;;;;;;1.20;0.65;;;34.30;48.60;;;;;;6372361;22;20167;-91
2023/08/29 10:02:18;;;;;;;1.05;0.75;;;34.40;48.60;;;;;;6368208;22;20272;-92
2023/08/29 10:04:54;;;;;;;3.20;1.60;;;34.40;48.60;;;;;;6369765;22;20152;-88
2023/08/29 10:07:34;;;;;;;1.17;0.88;;;34.50;48.40;;;;;;6369372;22;20152;-90
2023/08/29 10:10:03;;;;;;;0.60;0.60;;;34.50;48.00;;;;;;6368876;22;20163;-88
2023/08/29 10:12:32;;;;;;;2.20;0.88;;;34.60;47.90;;;;;;6370399;22;20167;-87
2023/08/29 10:15:01;;;;;;;0.90;0.82;;;34.60;47.70;;;;;;6369507;22;20167;-89
2023/08/29 10:17:31;;;;;;;0.90;0.80;;;34.60;47.50;;;;;;6369437;22;20171;-88
2023/08/29 10:20:04;;;;;;;1.85;0.75;;;34.70;47.50;;;;;;6368289;22;20239;-88
2023/08/29 10:22:35;;;;;;;6.82;1.25;;;34.80;47.60;;;;;;6367461;22;20152;-87
2023/08/29 10:25:04;;;;;;;3.22;0.50;;;34.80;48.20;;;;;;6368153;22;20630;-87
2023/08/29 10:27:35;;;;;;;1.60;1.13;;;34.90;47.40;;;;;;6367981;22;20239;-87
2023/08/29 10:30:05;;;;;;;0.70;0.70;;;35.00;48.10;;;;;;6368767;22;20175;-87
2023/08/29 10:32:35;;;;;;;3.45;1.05;;;35.10;47.40;;;;;;6369201;22;20164;-88
2023/08/29 10:35:07;;;;;;;0.75;0.75;;;35.10;46.30;;;;;;6365756;22;20694;-88
2023/08/29 10:37:35;;;;;;;0.47;0.47;;;35.10;46.30;;;;;;6367023;22;20165;-87
2023/08/29 10:40:11;;;;;;;0.80;0.75;;;35.20;46.40;;;;;;6364792;22;20168;-86
2023/08/29 10:42:54;;;;;;;1.20;0.73;;;35.30;46.50;;;;;;6367984;22;20191;-89
2023/08/29 10:45:23;;;;;;;1.45;0.75;;;35.30;46.10;;;;;;6366769;22;20239;-86
2023/08/29 10:47:54;;;;;;;1.40;1.15;;;35.40;46.40;;;;;;6365916;22;20168;-86
2023/08/29 10:50:24;;;;;;;0.60;0.60;;;35.40;46.10;;;;;;6366488;22;20156;-87
2023/08/29 10:52:56;;;;;;;1.80;1.45;;;35.50;45.70;;;;;;6367922;22;20202;-87
2023/08/29 10:55:27;;;;;;;1.30;1.13;;;35.60;46.00;;;;;;6368668;22;20194;-92
2023/08/29 10:57:58;;;;;;;0.95;0.95;;;35.70;45.70;;;;;;6366840;22;20152;-86
2023/08/29 11:00:35;;;;;;;3.42;0.90;;;35.70;45.30;;;;;;6367750;22;20220;-86
2023/08/29 11:03:04;;;;;;;0.80;0.80;;;35.70;44.50;;;;;;6366228;22;20158;-86
2023/08/29 11:05:39;;;;;;;1.50;1.08;;;35.80;44.90;;;;;;6367509;22;20163;-88
2023/08/29 11:08:21;;;;;;;3.70;1.20;;;35.80;44.20;;;;;;6367302;22;20738;-86
2023/08/29 11:11:14;;;;;;;0.85;0.82;;;35.90;44.00;;;;;;6340364;22;20176;-86
2023/08/29 11:14:01;;;;;;;1.30;1.15;;;35.90;44.30;;;;;;6368066;22;20163;-88
2023/08/29 11:16:30;;;;;;;1.05;0.75;;;36.00;44.00;;;;;;6366236;22;20233;-87
2023/08/29 11:19:04;;;;;;;0.80;0.73;;;36.00;44.10;;;;;;6367899;22;20210;-90
2023/08/29 11:21:35;;;;;;;2.95;0.50;;;36.10;44.10;;;;;;6367261;22;20186;-86
2023/08/29 11:24:06;;;;;;;0.60;0.60;;;36.10;44.00;;;;;;6368224;22;20218;-89
2023/08/29 11:26:40;;;;;;;0.98;0.98;;;36.10;43.40;;;;;;6352704;22;20160;-85
2023/08/29 11:29:09;;;;;;;1.08;0.90;;;36.20;43.00;;;;;;6367843;22;20468;-88
2023/08/29 11:31:41;;;;;;;1.10;0.90;;;36.20;43.10;;;;;;6367013;22;20600;-85
2023/08/29 11:34:18;;;;;;;1.75;0.98;;;36.30;43.40;;;;;;6367297;22;20497;-87
2023/08/29 11:36:50;;;;;;;0.50;0.50;;;36.30;43.20;;;;;;6366656;22;20519;-88
2023/08/29 11:39:21;;;;;;;0.52;0.52;;;36.30;43.20;;;;;;6367504;22;20247;-89
2023/08/29 11:41:50;;;;;;;2.05;0.85;;;36.40;43.20;;;;;;6339800;22;20194;-87
2023/08/29 11:44:38;;;;;;;1.92;1.20;;;36.40;43.40;;;;;;6345594;22;20221;-86
2023/08/29 11:47:27;;;;;;;0.77;0.75;;;36.40;43.30;;;;;;6368704;22;20213;-86
2023/08/29 11:49:56;;;;;;;0.77;0.50;;;36.40;43.00;;;;;;6369599;22;20164;-85
2023/08/29 11:52:26;;;;;;;0.65;0.63;;;36.50;43.10;;;;;;6367679;22;20571;-92
2023/08/29 11:54:57;;;;;;;0.68;0.63;;;36.60;43.30;;;;;;6368852;22;20191;-87
2023/08/29 11:57:30;;;;;;;2.58;0.80;;;36.60;42.70;;;;;;6365093;22;20164;-88
2023/08/29 11:59:58;;;;;;;1.65;1.38;;;36.60;42.60;;;;;;6368171;22;20167;-86
2023/08/29 12:02:27;;;;;;;2.15;1.10;;;36.60;42.30;;;;;;6366649;22;20295;-89
2023/08/29 12:04:56;;;;;;;1.75;1.27;;;36.70;42.00;;;;;;6366789;22;20191;-89
2023/08/29 12:07:33;;;;;;;1.17;0.98;;;36.60;42.00;;;;;;6339612;22;20624;-85
2023/08/29 12:10:08;;;;;;;0.63;0.63;;;36.80;42.40;;;;;;6366215;22;20167;-86
2023/08/29 12:12:37;;;;;;;0.95;0.95;;;36.70;42.30;;;;;;6365571;22;21025;-85
2023/08/29 12:15:10;;;;;;;0.65;0.60;;;36.70;42.50;;;;;;6365693;22;20593;-84
2023/08/29 12:17:41;;;;;;;0.90;0.85;;;36.70;42.50;;;;;;6368487;22;20478;-87
2023/08/29 12:20:30;;;;;;;1.00;0.90;;;36.80;42.40;;;;;;6355459;22;20148;-89
2023/08/29 12:23:01;;;;;;;1.63;0.95;;;36.70;41.40;;;;;;6364766;22;20176;-83
2023/08/29 12:25:29;;;;;;;0.88;0.82;;;36.80;41.70;;;;;;6367313;22;20187;-84
2023/08/29 12:27:58;;;;;;;3.13;0.80;;;36.80;41.70;;;;;;6339839;22;20639;-85
2023/08/29 12:30:28;;;;;;;0.75;0.63;;;36.80;42.00;;;;;;6366510;22;20171;-83
2023/08/29 12:32:56;;;;;;;1.83;1.20;;;36.80;41.50;;;;;;6365055;22;20222;-86
2023/08/29 12:35:25;;;;;;;1.88;1.13;;;36.90;41.00;;;;;;6365883;22;20168;-85
2023/08/29 12:37:53;;;;;;;0.65;0.47;;;36.90;40.70;;;;;;6367721;22;20164;-84
2023/08/29 12:40:23;;;;;;;0.75;0.73;;;36.90;40.70;;;;;;6366954;22;20171;-85
2023/08/29 12:42:52;;;;;;;1.48;1.08;;;36.90;40.60;;;;;;6366901;22;20195;-84
2023/08/29 12:45:20;;;;;;;1.20;1.10;;;37.00;40.60;;;;;;6367568;22;20172;-84
2023/08/29 12:47:50;;;;;;;0.80;0.73;;;36.90;40.40;;;;;;6367148;22;20168;-84
2023/08/29 12:50:19;;;;;;;2.72;0.98;;;37.00;40.70;;;;;;6367538;22;20160;-84
2023/08/29 12:52:48;;;;;;;0.90;0.77;;;36.90;40.00;;;;;;6365405;22;20222;-85
2023/08/29 12:55:16;;;;;;;0.95;0.85;;;36.90;39.90;;;;;;6366458;22;20187;-84
2023/08/29 12:57:48;;;;;;;2.80;1.17;;;37.00;40.30;;;;;;6366880;22;20632;-83
2023/08/29 13:00:18;;;;;;;0.75;0.75;;;37.00;40.70;;;;;;6367833;22;20299;-86
2023/08/29 13:02:46;;;;;;;9.02;0.82;;;37.00;40.70;;;;;;6366411;22;20192;-84